createdAt,value
2023-05-11T00:09:17.644Z,95.59
2023-05-11T00:19:17.814Z,96.00
2023-05-11T00:29:17.994Z,95.74
2023-05-11T00:39:18.179Z,96.20
2023-05-11T00:49:18.333Z,95.64
2023-05-11T00:59:18.500Z,95.84
2023-05-11T01:09:18.715Z,96.77
2023-05-11T01:19:18.866Z,96.35
2023-05-11T01:29:19.040Z,96.15
2023-05-11T01:39:19.216Z,95.89
2023-05-11T01:49:19.375Z,96.19
2023-05-11T01:59:19.517Z,95.68
2023-05-11T02:09:19.679Z,95.78
2023-05-11T02:19:19.856Z,96.30
2023-05-11T02:29:20.026Z,96.44
2023-05-11T02:39:20.185Z,96.95
2023-05-11T02:49:20.358Z,96.39
2023-05-11T02:59:20.514Z,97.16
2023-05-11T03:09:20.673Z,97.31
2023-05-11T03:19:20.925Z,97.31
2023-05-11T03:29:21.091Z,97.52
2023-05-11T03:39:21.254Z,97.31
2023-05-11T03:49:21.413Z,96.84
2023-05-11T03:59:21.570Z,96.39
2023-05-11T04:09:21.754Z,96.80
2023-05-11T04:19:21.918Z,97.56
2023-05-11T04:29:22.095Z,97.25
2023-05-11T04:39:22.269Z,97.25
2023-05-11T04:49:22.426Z,97.05
2023-05-11T04:59:22.594Z,97.15
2023-05-11T05:09:22.768Z,97.25
2023-05-11T05:19:22.926Z,97.52
2023-05-11T05:29:23.091Z,97.31
2023-05-11T05:39:23.249Z,96.90
2023-05-11T05:49:23.412Z,96.18
2023-05-11T05:59:23.623Z,96.03
2023-05-11T06:09:23.752Z,96.40
2023-05-11T06:19:23.916Z,96.77
2023-05-11T06:29:24.071Z,94.76
2023-05-11T06:39:24.255Z,94.20
2023-05-11T06:49:24.398Z,94.67
2023-05-11T06:59:24.550Z,94.56
2023-05-11T07:09:24.710Z,94.26
2023-05-11T07:19:24.870Z,94.26
2023-05-11T07:29:25.217Z,93.49
2023-05-11T07:39:25.196Z,93.25
2023-05-11T07:49:31.332Z,92.83
2023-05-11T07:59:26.593Z,92.27
2023-05-11T08:09:25.806Z,93.90
2023-05-11T08:19:25.981Z,93.76
2023-05-11T08:29:26.136Z,94.12
2023-05-11T08:39:45.504Z,93.67
2023-05-11T08:49:27.538Z,93.32
2023-05-11T08:59:26.688Z,93.79
2023-05-11T09:09:26.864Z,94.92
2023-05-11T09:19:27.191Z,93.28
2023-05-11T09:29:30.555Z,93.73
2023-05-11T09:39:35.334Z,93.32
2023-05-11T09:49:28.800Z,93.38
2023-05-11T09:59:27.773Z,94.07
2023-05-11T10:09:28.127Z,90.80
2023-05-11T10:19:28.073Z,92.76
2023-05-11T10:29:28.262Z,91.78
2023-05-11T10:39:28.454Z,93.06
2023-05-11T10:49:28.657Z,93.07
2023-05-11T10:59:28.821Z,87.41
2023-05-11T11:09:28.997Z,90.08
2023-05-11T11:19:29.172Z,89.12
2023-05-11T11:29:29.470Z,86.15
2023-05-11T11:39:29.604Z,83.01
2023-05-11T11:49:29.771Z,75.02
2023-05-11T11:59:29.946Z,79.49
2023-05-11T12:09:30.195Z,70.65
2023-05-11T12:19:30.314Z,70.42
2023-05-11T12:29:30.479Z,72.85
2023-05-11T12:39:30.651Z,74.27
2023-05-11T12:49:30.819Z,76.67
2023-05-11T12:59:30.992Z,77.15
2023-05-11T13:09:31.146Z,80.16
2023-05-11T13:19:31.443Z,77.26
2023-05-11T13:29:31.402Z,74.82
2023-05-11T13:39:31.590Z,71.91
2023-05-11T13:49:31.745Z,68.90
2023-05-11T13:59:31.908Z,74.24
2023-05-11T14:09:32.064Z,73.60
2023-05-11T14:19:32.246Z,77.43
2023-05-11T14:29:32.396Z,79.57
2023-05-11T14:39:32.604Z,81.96
2023-05-11T14:49:32.807Z,84.34
2023-05-11T14:59:32.940Z,87.16
2023-05-11T15:09:33.132Z,87.47
2023-05-11T15:19:33.302Z,88.39
2023-05-11T15:29:33.456Z,91.35
2023-05-11T15:39:33.640Z,91.91
2023-05-11T15:49:33.810Z,91.14
2023-05-11T15:59:33.983Z,91.30
2023-05-11T16:09:34.306Z,92.32
2023-05-11T16:19:34.342Z,89.47
2023-05-11T16:29:34.547Z,89.36
2023-05-11T16:39:34.717Z,90.79
2023-05-11T16:49:35.137Z,90.94
2023-05-11T16:59:35.386Z,89.40
2023-05-11T17:09:35.590Z,91.71
2023-05-11T17:19:35.809Z,90.99
2023-05-11T17:29:36.070Z,89.30
2023-05-11T17:39:36.329Z,87.57
2023-05-11T17:49:36.418Z,89.10
2023-05-11T17:59:36.536Z,91.03
2023-05-11T18:09:36.644Z,89.92
2023-05-11T18:19:36.753Z,89.86
2023-05-11T18:29:36.882Z,90.16
2023-05-11T18:39:37.019Z,92.04
2023-05-11T18:49:37.133Z,92.35
2023-05-11T18:59:37.247Z,93.00
2023-05-11T19:09:37.334Z,93.62
2023-05-11T19:19:37.431Z,94.43
2023-05-11T19:29:37.601Z,95.39
2023-05-11T19:39:37.680Z,95.50
2023-05-11T19:49:42.006Z,95.60
2023-05-11T19:59:38.075Z,95.76
2023-05-11T20:09:38.127Z,95.96
2023-05-11T20:19:38.378Z,95.45
2023-05-11T20:29:38.661Z,94.68
2023-05-11T20:39:38.914Z,94.93
2023-05-11T20:49:39.624Z,95.13
2023-05-11T21:09:39.160Z,95.28
2023-05-11T21:19:39.279Z,95.53
2023-05-11T21:29:39.454Z,95.12
2023-05-11T21:39:39.612Z,95.26
2023-05-11T21:49:39.782Z,95.43
2023-05-11T21:59:39.964Z,95.02
2023-05-11T22:09:40.139Z,95.57
2023-05-11T22:19:40.308Z,95.67
2023-05-11T22:29:40.458Z,95.82
2023-05-11T22:39:40.661Z,95.67
2023-05-11T22:49:40.819Z,94.75
2023-05-11T22:59:40.992Z,94.34
2023-05-11T23:09:41.173Z,94.65
2023-05-11T23:19:41.438Z,95.32
2023-05-11T23:29:41.499Z,95.47
2023-05-11T23:39:41.666Z,95.88
2023-05-11T23:49:41.832Z,96.14
2023-05-11T23:59:42.018Z,96.14
